createdAt,value
2018-04-11T00:01:30.233Z,94740.24
2018-04-11T00:03:56.653Z,94729.59
2018-04-11T00:06:23.068Z,94721.23
2018-04-11T00:08:49.530Z,94720.73
2018-04-11T00:11:16.041Z,94716.98
2018-04-11T00:13:42.427Z,94723.88
2018-04-11T00:16:08.879Z,94723.05
2018-04-11T00:18:35.344Z,94721.67
2018-04-11T00:21:01.746Z,94723.00
2018-04-11T00:23:28.151Z,94715.33
2018-04-11T00:25:54.592Z,94709.95
2018-04-11T00:28:21.023Z,94710.86
2018-04-11T00:30:47.429Z,94707.11
2018-04-11T00:33:13.821Z,94701.41
2018-04-11T00:35:40.312Z,94698.70
2018-04-11T00:38:06.685Z,94692.14
2018-04-11T00:40:33.091Z,94695.75
2018-04-11T00:42:59.511Z,94692.09
2018-04-11T00:45:25.870Z,94692.17
2018-04-11T00:47:52.242Z,94692.65
2018-04-11T00:50:18.719Z,94696.54
2018-04-11T00:55:46.409Z,94682.53
2018-04-11T00:58:12.740Z,94679.94
2018-04-11T01:00:39.119Z,94688.50
2018-04-11T01:03:12.565Z,94690.77
2018-04-11T01:05:38.980Z,94693.10
2018-04-11T01:08:05.372Z,94688.64
2018-04-11T01:10:31.855Z,94695.66
2018-04-11T01:12:58.257Z,94687.94
2018-04-11T01:15:24.657Z,94691.58
2018-04-11T01:17:51.079Z,94687.99
2018-04-11T01:20:17.512Z,94684.66
2018-04-11T01:22:43.944Z,94683.14
2018-04-11T01:25:10.407Z,94686.63
2018-04-11T01:27:36.876Z,94688.93
2018-04-11T01:30:03.420Z,94685.72
2018-04-11T01:32:29.900Z,94685.61
2018-04-11T01:34:56.300Z,94686.41
2018-04-11T01:37:22.798Z,94683.47
2018-04-11T01:39:49.231Z,94687.98
2018-04-11T01:42:15.631Z,94690.22
2018-04-11T01:44:42.104Z,94698.09
2018-04-11T01:47:08.553Z,94692.59
2018-04-11T01:49:35.052Z,94698.84
2018-04-11T01:52:01.544Z,94695.67
2018-04-11T01:54:28.028Z,94695.37
2018-04-11T01:56:54.490Z,94703.23
2018-04-11T01:59:20.892Z,94695.03
2018-04-11T02:01:47.301Z,94694.53
2018-04-11T02:04:13.744Z,94695.57
2018-04-11T02:06:40.117Z,94695.60
2018-04-11T02:09:06.549Z,94695.73
2018-04-11T02:11:33.075Z,94695.76
2018-04-11T02:13:59.483Z,94703.78
2018-04-11T02:16:25.948Z,94696.19
2018-04-11T02:18:52.403Z,94698.62
2018-04-11T02:21:18.816Z,94707.16
2018-04-11T02:23:45.231Z,94704.94
2018-04-11T02:26:11.623Z,94697.86
2018-04-11T02:28:38.036Z,94707.64
2018-04-11T02:31:04.469Z,94704.80
2018-04-11T02:33:30.980Z,94705.28
2018-04-11T02:35:57.465Z,94702.28
2018-04-11T02:38:24.007Z,94704.43
2018-04-11T02:40:50.522Z,94696.00
2018-04-11T02:43:16.996Z,94691.89
2018-04-11T02:45:43.428Z,94698.54
2018-04-11T02:48:09.845Z,94701.44
2018-04-11T02:50:36.415Z,94692.37
2018-04-11T02:53:02.844Z,94688.45
2018-04-11T02:55:29.308Z,94692.91
2018-04-11T02:57:55.768Z,94689.27
2018-04-11T03:00:22.203Z,94690.73
2018-04-11T03:02:48.580Z,94679.92
2018-04-11T03:05:14.991Z,94680.83
2018-04-11T03:07:41.449Z,94686.66
2018-04-11T03:10:07.988Z,94676.20
2018-04-11T03:12:34.552Z,94679.41
2018-04-11T03:15:00.955Z,94672.66
2018-04-11T03:17:27.438Z,94669.34
2018-04-11T03:19:53.824Z,94673.42
2018-04-11T03:22:20.297Z,94672.38
2018-04-11T03:24:46.752Z,94666.00
2018-04-11T03:27:13.190Z,94663.33
2018-04-11T03:29:39.623Z,94674.84
2018-04-11T03:32:06.094Z,94678.84
2018-04-11T03:34:32.721Z,94673.73
2018-04-11T03:36:59.267Z,94677.31
2018-04-11T03:39:25.768Z,94675.38
2018-04-11T03:41:52.139Z,94680.05
2018-04-11T03:44:18.530Z,94684.89
2018-04-11T03:46:44.929Z,94684.23
2018-04-11T03:49:11.441Z,94689.45
2018-04-11T03:51:37.912Z,94686.06
2018-04-11T03:54:04.295Z,94684.69
2018-04-11T03:56:30.729Z,94684.69
2018-04-11T03:58:57.164Z,94677.73
2018-04-11T04:01:23.578Z,94682.43
2018-04-11T04:03:50.089Z,94681.56
2018-04-11T04:06:16.468Z,94684.05
2018-04-11T04:08:42.936Z,94682.08
2018-04-11T04:11:09.407Z,94691.27
2018-04-11T04:13:47.939Z,94699.47
2018-04-11T04:16:26.515Z,94690.70
2018-04-11T04:19:05.225Z,94693.83
2018-04-11T04:21:31.914Z,94698.17
2018-04-11T04:23:58.409Z,94703.83
2018-04-11T04:26:24.779Z,94708.41
2018-04-11T04:28:51.136Z,94715.30
2018-04-11T04:31:17.536Z,94710.39
2018-04-11T04:33:43.920Z,94711.31
2018-04-11T04:36:10.382Z,94713.02
2018-04-11T04:38:36.784Z,94715.97
2018-04-11T04:41:03.201Z,94716.41
2018-04-11T04:43:29.625Z,94716.02
2018-04-11T04:45:56.029Z,94718.73
2018-04-11T04:48:22.512Z,94723.22
2018-04-11T04:50:49.100Z,94724.84
2018-04-11T04:53:15.810Z,94721.19
2018-04-11T04:55:42.319Z,94719.03
2018-04-11T04:58:08.817Z,94725.55
2018-04-11T05:00:42.197Z,94726.71
2018-04-11T05:03:08.668Z,94731.63
2018-04-11T05:05:35.253Z,94738.95
2018-04-11T05:08:01.745Z,94739.58
2018-04-11T05:10:28.169Z,94747.10
2018-04-11T05:12:54.607Z,94750.80
2018-04-11T05:15:21.129Z,94751.34
2018-04-11T05:17:47.585Z,94746.70
2018-04-11T05:20:14.122Z,94737.95
2018-04-11T05:22:40.506Z,94740.39
2018-04-11T05:25:06.952Z,94735.04
2018-04-11T05:27:33.400Z,94728.41
2018-04-11T05:29:59.858Z,94736.47
2018-04-11T05:32:26.291Z,94747.53
2018-04-11T05:34:52.788Z,94743.85
2018-04-11T05:37:19.199Z,94747.22
2018-04-11T05:39:45.628Z,94746.20
2018-04-11T05:42:12.077Z,94747.66
2018-04-11T05:44:38.571Z,94743.31
2018-04-11T05:47:05.044Z,94744.13
2018-04-11T05:49:31.404Z,94749.77
2018-04-11T05:51:57.889Z,94743.77
2018-04-11T05:54:24.304Z,94748.22
2018-04-11T05:56:50.811Z,94750.40
2018-04-11T05:59:17.249Z,94755.22
2018-04-11T06:01:43.692Z,94753.47
2018-04-11T06:04:10.142Z,94748.64
2018-04-11T06:06:36.595Z,94741.98
2018-04-11T06:09:03.075Z,94741.89
2018-04-11T06:11:29.549Z,94745.56
2018-04-11T06:13:56.073Z,94750.45
2018-04-11T06:16:22.649Z,94754.44
2018-04-11T06:18:49.112Z,94763.65
2018-04-11T06:21:15.588Z,94761.06
2018-04-11T06:23:41.965Z,94762.51
2018-04-11T06:26:08.456Z,94765.28
2018-04-11T06:28:34.864Z,94766.90
2018-04-11T06:31:01.329Z,94768.04
2018-04-11T06:33:27.801Z,94769.19
2018-04-11T06:35:54.293Z,94769.05
2018-04-11T06:38:20.752Z,94777.96
2018-04-11T06:40:47.183Z,94779.09
2018-04-11T06:43:13.625Z,94771.70
2018-04-11T06:45:39.995Z,94774.42
2018-04-11T06:48:06.422Z,94780.91
2018-04-11T06:50:32.833Z,94788.23
2018-04-11T06:52:59.188Z,94789.94
2018-04-11T06:55:25.647Z,94785.28
2018-04-11T06:57:52.085Z,94781.22
2018-04-11T07:00:18.576Z,94774.10
2018-04-11T07:02:44.980Z,94766.28
2018-04-11T07:05:11.428Z,94772.59
2018-04-11T07:07:37.913Z,94774.21
2018-04-11T07:10:04.403Z,94770.13
2018-04-11T07:12:30.856Z,94773.37
2018-04-11T07:14:57.255Z,94778.17
2018-04-11T07:17:23.655Z,94772.97
2018-04-11T07:19:56.970Z,94763.20
2018-04-11T07:22:23.337Z,94761.16
2018-04-11T07:24:49.846Z,94757.41
2018-04-11T07:27:16.277Z,94763.39
2018-04-11T07:29:42.689Z,94760.27
2018-04-11T07:32:09.168Z,94760.45
2018-04-11T07:34:35.606Z,94765.25
2018-04-11T07:37:01.975Z,94758.33
2018-04-11T07:39:28.383Z,94748.59
2018-04-11T07:41:54.803Z,94749.67
2018-04-11T07:44:21.303Z,94749.56
2018-04-11T07:46:47.779Z,94744.73
2018-04-11T07:49:14.188Z,94743.02
2018-04-11T07:51:40.696Z,94738.86
2018-04-11T07:54:07.134Z,94742.24
2018-04-11T07:56:33.608Z,94744.22
2018-04-11T07:59:00.011Z,94750.13
2018-04-11T08:01:26.431Z,94752.48
2018-04-11T08:03:52.887Z,94756.69
2018-04-11T08:06:19.284Z,94758.20
2018-04-11T08:08:45.739Z,94762.17
2018-04-11T08:11:12.176Z,94766.03
2018-04-11T08:13:38.728Z,94758.44
2018-04-11T08:16:05.124Z,94745.43
2018-04-11T08:18:31.637Z,94745.44
2018-04-11T08:20:58.080Z,94743.83
2018-04-11T08:23:28.380Z,94750.31
2018-04-11T08:25:54.942Z,94751.94
2018-04-11T08:28:21.405Z,94754.59
2018-04-11T08:30:47.904Z,94752.91
2018-04-11T08:33:14.345Z,94749.58
2018-04-11T08:35:40.784Z,94755.16
2018-04-11T08:38:07.157Z,94764.47
2018-04-11T08:40:33.596Z,94763.70
2018-04-11T08:43:00.051Z,94764.73
2018-04-11T08:45:26.416Z,94766.00
2018-04-11T08:47:52.798Z,94758.27
2018-04-11T08:50:19.238Z,94759.62
2018-04-11T08:52:45.711Z,94766.27
2018-04-11T08:55:12.172Z,94762.98
2018-04-11T08:57:38.585Z,94762.88
2018-04-11T09:00:05.009Z,94755.27
2018-04-11T09:02:31.436Z,94750.20
2018-04-11T09:04:57.827Z,94747.02
2018-04-11T09:07:24.297Z,94742.63
2018-04-11T09:09:50.681Z,94744.73
2018-04-11T09:12:17.120Z,94729.23
2018-04-11T09:14:43.546Z,94721.78
2018-04-11T09:17:09.937Z,94720.36
2018-04-11T09:19:36.472Z,94714.74
2018-04-11T09:22:02.932Z,94712.08
2018-04-11T09:24:29.404Z,94703.13
2018-04-11T09:26:55.832Z,94704.18
2018-04-11T09:29:22.293Z,94704.79
2018-04-11T09:31:48.755Z,94703.78
2018-04-11T09:34:15.236Z,94706.98
2018-04-11T09:36:41.728Z,94699.17
2018-04-11T09:39:08.257Z,94699.13
2018-04-11T09:41:34.784Z,94704.16
2018-04-11T09:44:01.272Z,94696.37
2018-04-11T09:46:27.667Z,94696.44
2018-04-11T09:48:54.016Z,94689.72
2018-04-11T09:51:20.475Z,94684.61
2018-04-11T09:53:46.884Z,94691.55
2018-04-11T09:56:13.259Z,94687.77
2018-04-11T09:58:39.720Z,94685.12
2018-04-11T10:01:06.275Z,94674.38
2018-04-11T10:03:32.730Z,94674.31
2018-04-11T10:05:59.138Z,94670.23
2018-04-11T10:08:25.548Z,94676.02
2018-04-11T10:10:52.040Z,94671.16
2018-04-11T10:13:18.463Z,94659.75
2018-04-11T10:15:44.900Z,94661.80
2018-04-11T10:18:11.367Z,94655.30
2018-04-11T10:20:38.158Z,94653.28
2018-04-11T10:23:04.637Z,94649.18
2018-04-11T10:25:31.137Z,94643.87
2018-04-11T10:27:57.505Z,94642.99
2018-04-11T10:30:23.864Z,94628.11
2018-04-11T10:32:50.271Z,94630.86
2018-04-11T10:35:16.676Z,94620.63
2018-04-11T10:37:43.093Z,94620.34
2018-04-11T10:40:09.465Z,94613.63
2018-04-11T10:42:35.912Z,94610.23
2018-04-11T10:45:02.455Z,94610.66
2018-04-11T10:47:29.193Z,94605.61
2018-04-11T10:49:55.679Z,94600.07
2018-04-11T10:52:22.120Z,94595.45
2018-04-11T10:54:48.503Z,94590.49
2018-04-11T10:57:14.852Z,94589.34
2018-04-11T10:59:41.322Z,94587.30
2018-04-11T11:02:07.828Z,94584.41
2018-04-11T11:04:34.284Z,94586.66
2018-04-11T11:07:00.904Z,94571.96
2018-04-11T11:09:27.455Z,94568.97
2018-04-11T11:11:53.867Z,94571.50
2018-04-11T11:14:20.235Z,94581.61
2018-04-11T11:16:46.814Z,94571.56
2018-04-11T11:19:13.389Z,94579.13
2018-04-11T11:21:39.819Z,94578.09
2018-04-11T11:24:06.304Z,94578.58
2018-04-11T11:26:32.808Z,94576.54
2018-04-11T11:28:59.203Z,94580.34
2018-04-11T11:31:25.625Z,94563.78
2018-04-11T11:33:52.170Z,94567.98
2018-04-11T11:36:18.640Z,94566.74
2018-04-11T11:38:45.070Z,94568.59
2018-04-11T11:41:11.517Z,94560.99
2018-04-11T11:43:38.023Z,94562.32
2018-04-11T11:46:04.502Z,94558.98
2018-04-11T11:48:31.002Z,94564.48
2018-04-11T11:50:57.510Z,94558.27
2018-04-11T11:53:24.041Z,94552.77
2018-04-11T11:55:50.498Z,94552.77
2018-04-11T11:58:16.859Z,94550.05
2018-04-11T12:00:50.275Z,94547.61
2018-04-11T12:03:16.748Z,94544.58
2018-04-11T12:05:43.144Z,94539.61
2018-04-11T12:08:09.516Z,94544.40
2018-04-11T12:10:35.966Z,94544.19
2018-04-11T12:13:02.477Z,94540.84
2018-04-11T12:15:28.890Z,94538.65
2018-04-11T12:17:55.333Z,94537.35
2018-04-11T12:20:21.776Z,94537.08
2018-04-11T12:22:48.213Z,94531.76
2018-04-11T12:25:14.677Z,94543.28
2018-04-11T12:27:41.115Z,94536.20
2018-04-11T12:30:07.510Z,94533.14
2018-04-11T12:32:33.942Z,94526.02
2018-04-11T12:35:00.386Z,94532.31
2018-04-11T12:37:26.805Z,94523.16
2018-04-11T12:39:53.280Z,94523.80
2018-04-11T12:42:19.804Z,94516.72
2018-04-11T12:44:46.201Z,94502.45
2018-04-11T12:47:12.641Z,94506.38
2018-04-11T12:49:39.125Z,94504.91
2018-04-11T12:52:05.644Z,94495.32
2018-04-11T12:54:32.082Z,94491.66
2018-04-11T12:56:58.477Z,94491.86
2018-04-11T12:59:24.862Z,94485.24
2018-04-11T13:01:51.220Z,94484.66
2018-04-11T13:04:17.769Z,94487.30
2018-04-11T13:06:44.233Z,94486.79
2018-04-11T13:09:10.615Z,94469.85
2018-04-11T13:11:37.058Z,94471.50
2018-04-11T13:14:03.540Z,94469.75
2018-04-11T13:16:29.973Z,94462.80
2018-04-11T13:18:56.532Z,94459.50
2018-04-11T13:21:23.040Z,94458.13
2018-04-11T13:23:49.539Z,94458.64
2018-04-11T13:26:16.044Z,94457.13
2018-04-11T13:28:42.475Z,94460.98
2018-04-11T13:31:08.944Z,94453.42
2018-04-11T13:33:35.431Z,94452.11
2018-04-11T13:36:01.912Z,94444.78
2018-04-11T13:38:28.277Z,94449.27
2018-04-11T13:40:54.796Z,94452.22
2018-04-11T13:43:21.337Z,94441.39
2018-04-11T13:45:47.875Z,94435.25
2018-04-11T13:48:14.318Z,94446.63
2018-04-11T13:50:40.702Z,94437.56
2018-04-11T13:53:07.192Z,94430.94
2018-04-11T13:55:33.692Z,94430.42
2018-04-11T13:58:00.072Z,94432.67
2018-04-11T14:00:26.556Z,94434.27
2018-04-11T14:02:52.940Z,94429.52
2018-04-11T14:05:19.420Z,94434.84
2018-04-11T14:07:45.855Z,94439.05
2018-04-11T14:10:12.405Z,94440.38
2018-04-11T14:12:38.917Z,94435.20
2018-04-11T14:15:05.310Z,94427.95
2018-04-11T14:17:31.955Z,94437.70
2018-04-11T14:19:58.375Z,94440.16
2018-04-11T14:22:24.780Z,94440.58
2018-04-11T14:24:51.252Z,94440.75
2018-04-11T14:27:17.643Z,94439.56
2018-04-11T14:29:44.077Z,94431.75
2018-04-11T14:32:10.439Z,94431.09
2018-04-11T14:34:36.868Z,94425.14
2018-04-11T14:37:03.317Z,94429.65
2018-04-11T14:39:29.761Z,94430.74
2018-04-11T14:41:56.413Z,94430.22
2018-04-11T14:44:23.322Z,94427.45
2018-04-11T14:46:49.861Z,94424.48
2018-04-11T14:49:16.331Z,94424.75
2018-04-11T14:51:42.832Z,94420.48
2018-04-11T14:54:09.264Z,94424.08
2018-04-11T14:56:35.706Z,94424.08
2018-04-11T14:59:02.126Z,94429.52
2018-04-11T15:01:28.609Z,94429.87
2018-04-11T15:03:54.988Z,94436.92
2018-04-11T15:06:21.392Z,94436.96
2018-04-11T15:08:47.783Z,94431.77
2018-04-11T15:11:14.231Z,94433.17
2018-04-11T15:13:40.671Z,94442.44
2018-04-11T15:16:07.197Z,94438.39
2018-04-11T15:18:33.634Z,94439.92
2018-04-11T15:21:00.001Z,94443.83
2018-04-11T15:23:26.426Z,94445.97
2018-04-11T15:25:52.913Z,94439.73
2018-04-11T15:28:19.321Z,94440.91
2018-04-11T15:30:45.720Z,94445.14
2018-04-11T15:33:12.099Z,94450.18
2018-04-11T15:35:38.584Z,94444.38
2018-04-11T15:38:05.085Z,94451.95
2018-04-11T15:40:31.802Z,94449.36
2018-04-11T15:42:58.205Z,94447.17
2018-04-11T15:45:24.635Z,94448.39
2018-04-11T15:47:51.117Z,94446.79
2018-04-11T15:50:17.581Z,94446.23
2018-04-11T15:52:44.003Z,94445.19
2018-04-11T15:55:10.509Z,94447.75
2018-04-11T15:57:36.945Z,94443.63
2018-04-11T16:00:03.376Z,94445.77
2018-04-11T16:02:29.791Z,94436.00
2018-04-11T16:04:56.183Z,94440.34
2018-04-11T16:07:22.587Z,94437.45
2018-04-11T16:09:49.048Z,94440.38
2018-04-11T16:12:15.514Z,94444.16
2018-04-11T16:14:41.897Z,94445.40
2018-04-11T16:17:08.412Z,94451.16
2018-04-11T16:19:34.864Z,94445.86
2018-04-11T16:22:01.298Z,94448.34
2018-04-11T16:24:28.037Z,94443.95
2018-04-11T16:26:54.539Z,94453.38
2018-04-11T16:29:21.527Z,94448.51
2018-04-11T16:31:48.174Z,94447.75
2018-04-11T16:34:14.612Z,94456.05
2018-04-11T16:36:41.071Z,94453.13
2018-04-11T16:39:07.532Z,94454.34
2018-04-11T16:41:34.251Z,94463.08
2018-04-11T16:44:00.664Z,94460.67
2018-04-11T16:46:27.100Z,94466.67
2018-04-11T16:48:53.646Z,94471.77
2018-04-11T16:51:20.113Z,94477.49
2018-04-11T16:53:46.648Z,94471.38
2018-04-11T16:56:13.034Z,94477.68
2018-04-11T16:58:39.662Z,94482.37
2018-04-11T17:01:06.213Z,94481.23
2018-04-11T17:03:32.749Z,94489.15
2018-04-11T17:05:59.200Z,94482.91
2018-04-11T17:08:25.635Z,94484.20
2018-04-11T17:10:52.175Z,94481.94
2018-04-11T17:13:18.714Z,94482.96
2018-04-11T17:15:45.220Z,94492.28
2018-04-11T17:18:11.656Z,94493.69
2018-04-11T17:20:50.385Z,94496.56
2018-04-11T17:23:28.724Z,94498.31
2018-04-11T17:26:07.272Z,94506.26
2018-04-11T17:28:45.929Z,94511.20
2018-04-11T17:34:06.304Z,94529.05
2018-04-11T17:36:32.734Z,94531.20
2018-04-11T17:38:59.876Z,94541.69
2018-04-11T17:41:26.490Z,94548.92
2018-04-11T17:43:53.039Z,94547.12
2018-04-11T17:46:19.610Z,94557.05
2018-04-11T17:48:45.966Z,94560.63
2018-04-11T17:51:12.375Z,94563.67
2018-04-11T17:53:38.828Z,94570.75
2018-04-11T17:56:05.261Z,94565.56
2018-04-11T17:58:31.638Z,94574.66
2018-04-11T18:00:58.045Z,94580.09
2018-04-11T18:03:24.552Z,94586.08
2018-04-11T18:05:51.044Z,94588.31
2018-04-11T18:08:17.544Z,94597.03
2018-04-11T18:10:44.041Z,94602.52
2018-04-11T18:13:10.452Z,94609.91
2018-04-11T18:15:36.876Z,94613.74
2018-04-11T18:18:03.330Z,94619.34
2018-04-11T18:20:29.704Z,94622.73
2018-04-11T18:22:56.145Z,94623.80
2018-04-11T18:25:22.600Z,94628.94
2018-04-11T18:27:49.759Z,94632.91
2018-04-11T18:30:16.352Z,94635.22
2018-04-11T18:32:42.752Z,94640.16
2018-04-11T18:35:09.234Z,94643.49
2018-04-11T18:37:35.697Z,94645.02
2018-04-11T18:40:02.110Z,94649.53
2018-04-11T18:42:28.638Z,94652.55
2018-04-11T18:44:55.153Z,94658.37
2018-04-11T18:47:21.621Z,94657.53
2018-04-11T18:49:47.937Z,94657.03
2018-04-11T18:52:14.409Z,94656.56
2018-04-11T18:54:40.878Z,94655.81
2018-04-11T18:57:07.306Z,94661.80
2018-04-11T18:59:33.769Z,94660.36
2018-04-11T19:02:00.092Z,94661.98
2018-04-11T19:04:26.443Z,94666.47
2018-04-11T19:06:52.819Z,94670.97
2018-04-11T19:09:19.312Z,94673.11
2018-04-11T19:11:45.704Z,94673.27
2018-04-11T19:14:12.119Z,94676.86
2018-04-11T19:16:38.567Z,94673.27
2018-04-11T19:19:05.074Z,94678.52
2018-04-11T19:21:31.574Z,94680.49
2018-04-11T19:23:58.014Z,94682.08
2018-04-11T19:26:24.460Z,94675.81
2018-04-11T19:28:50.888Z,94688.45
2018-04-11T19:31:17.394Z,94692.25
2018-04-11T19:33:43.804Z,94692.44
2018-04-11T19:36:10.260Z,94691.84
2018-04-11T19:38:36.667Z,94693.45
2018-04-11T19:41:03.148Z,94689.28
2018-04-11T19:43:29.527Z,94683.97
2018-04-11T19:45:55.993Z,94690.12
2018-04-11T19:48:22.395Z,94686.52
2018-04-11T19:50:48.933Z,94692.84
2018-04-11T19:53:15.326Z,94687.39
2018-04-11T19:55:41.833Z,94688.73
2018-04-11T19:58:08.304Z,94687.02
2018-04-11T20:00:34.815Z,94680.92
2018-04-11T20:03:01.349Z,94686.59
2018-04-11T20:05:27.765Z,94690.75
2018-04-11T20:07:54.740Z,94690.23
2018-04-11T20:10:21.045Z,94696.45
2018-04-11T20:12:47.512Z,94706.59
2018-04-11T20:15:13.913Z,94706.23
2018-04-11T20:17:40.325Z,94705.66
2018-04-11T20:20:06.795Z,94708.77
2018-04-11T20:22:33.231Z,94710.65
2018-04-11T20:24:59.612Z,94705.66
2018-04-11T20:27:26.044Z,94710.17
2018-04-11T20:29:52.490Z,94711.56
2018-04-11T20:32:18.860Z,94709.98
2018-04-11T20:34:45.266Z,94705.44
2018-04-11T20:37:11.810Z,94708.34
2018-04-11T20:39:38.307Z,94711.41
2018-04-11T20:42:04.956Z,94713.38
2018-04-11T20:44:31.355Z,94717.74
2018-04-11T20:46:57.757Z,94722.19
2018-04-11T20:49:24.086Z,94722.83
2018-04-11T20:51:57.575Z,94726.68
2018-04-11T20:54:24.038Z,94724.36
2018-04-11T20:56:50.481Z,94723.83
2018-04-11T20:59:16.864Z,94732.88
2018-04-11T21:01:43.337Z,94730.06
2018-04-11T21:04:09.945Z,94729.05
2018-04-11T21:06:36.416Z,94726.65
2018-04-11T21:09:03.041Z,94729.48
2018-04-11T21:11:29.456Z,94729.70
2018-04-11T21:13:55.802Z,94726.05
2018-04-11T21:16:22.274Z,94729.28
2018-04-11T21:18:48.699Z,94722.39
2018-04-11T21:21:15.158Z,94727.36
2018-04-11T21:23:41.680Z,94728.38
2018-04-11T21:26:08.124Z,94734.97
2018-04-11T21:28:34.537Z,94732.39
2018-04-11T21:31:00.922Z,94732.78
2018-04-11T21:33:27.308Z,94728.44
2018-04-11T21:35:53.721Z,94730.03
2018-04-11T21:38:20.152Z,94731.44
2018-04-11T21:40:46.665Z,94729.81
2018-04-11T21:43:13.164Z,94729.59
2018-04-11T21:45:39.835Z,94731.39
2018-04-11T21:48:06.314Z,94734.02
2018-04-11T21:50:32.832Z,94727.11
2018-04-11T21:52:59.455Z,94729.53
2018-04-11T21:55:25.897Z,94730.40
2018-04-11T21:57:52.489Z,94735.03
2018-04-11T22:00:18.936Z,94743.41
2018-04-11T22:02:45.411Z,94743.77
2018-04-11T22:05:12.034Z,94746.59
2018-04-11T22:07:38.525Z,94749.78
2018-04-11T22:10:04.984Z,94749.87
2018-04-11T22:12:31.497Z,94744.36
2018-04-11T22:14:58.070Z,94750.33
2018-04-11T22:17:24.551Z,94748.91
2018-04-11T22:19:50.938Z,94747.19
2018-04-11T22:22:17.432Z,94753.53
2018-04-11T22:24:43.965Z,94759.17
2018-04-11T22:27:10.491Z,94757.18
2018-04-11T22:29:36.964Z,94755.77
2018-04-11T22:32:03.537Z,94752.09
2018-04-11T22:34:30.062Z,94754.55
2018-04-11T22:36:56.532Z,94758.13
2018-04-11T22:39:23.058Z,94755.42
2018-04-11T22:41:49.530Z,94757.98
2018-04-11T22:44:16.185Z,94761.99
2018-04-11T22:46:42.614Z,94761.81
2018-04-11T22:49:09.272Z,94758.92
2018-04-11T22:51:35.669Z,94757.64
2018-04-11T22:54:02.140Z,94759.87
2018-04-11T22:56:28.708Z,94760.68
2018-04-11T22:58:55.195Z,94757.81
2018-04-11T23:01:21.641Z,94758.28
2018-04-11T23:03:48.159Z,94756.97
2018-04-11T23:06:14.623Z,94763.73
2018-04-11T23:08:41.137Z,94759.41
2018-04-11T23:11:07.662Z,94766.98
2018-04-11T23:13:34.178Z,94764.67
2018-04-11T23:16:00.670Z,94770.94
2018-04-11T23:18:27.287Z,94763.45
2018-04-11T23:20:53.833Z,94760.42
2018-04-11T23:23:20.319Z,94758.16
2018-04-11T23:25:46.763Z,94758.82
2018-04-11T23:28:13.361Z,94752.97
2018-04-11T23:30:39.828Z,94756.77
2018-04-11T23:33:06.265Z,94758.03
2018-04-11T23:35:32.678Z,94754.48
2018-04-11T23:37:59.216Z,94754.74
2018-04-11T23:40:25.777Z,94753.06
2018-04-11T23:42:52.318Z,94751.31
2018-04-11T23:45:18.824Z,94754.94
2018-04-11T23:47:45.336Z,94755.81
2018-04-11T23:50:11.744Z,94753.19
2018-04-11T23:52:38.198Z,94755.37
2018-04-11T23:55:04.659Z,94755.62
2018-04-11T23:57:31.132Z,94765.95
2018-04-11T23:59:57.603Z,94769.30
